Main page
METAR-TAF:

METAR-TAF

Airports :

Tallinn Airport

Tallinn, Estonia

latitude: 59-23N, longitude: 024-35E, elevation: 44 m

Current weather observation

The report was made 38 minutes ago, at 22:20 UTC
Wind 4 kt from the Southeast
Temperature 1°C
Humidity 80%
Pressure 1036 hPa
Visibility 10 km or more
Overcast at a height of 2300 ft

METAR: EETN 192220Z 14004KT 9999 OVC023 01/M02 Q1036 R08/290195

Time: 00:58 (22:58 UTC)

Forecast

The report was made 5 hours and 58 minutes ago, at 17:00 UTC
Forecast valid from 19 at 18 UTC to 20 at 18 UTC
Wind 2 kt from variable directions
Visibility 10 km or more
Overcast at a height of 2500 ft
Probability 30% :
Temporary
from 19 at 18 UTC to 20 at 06 UTC
Visibility: 4000 m
Broken clouds at a height of 700 ft
Broken clouds at a height of 2000 ft
snow
Becoming
from 20 at 06 UTC to 20 at 08 UTC
Wind 10 kt from the West/Northwest

TAF: EETN 191700Z 1918/2018 VRB02KT 9999 OVC025 PROB30 TEMPO 1918/2006 4000 SN BKN007 BKN020 BECMG 2006/2008 30010KT

Weather observations and forecasts of more than 4000 airports (METAR and TAF reports).

The available stations are represented by yellow and red dots on the map.

Hover mouse over dot to see the name of the station.

Then click to see weather observations and forecasts.

To change the map : click on the green buttons with a black cross to zoom in, on the green button with a dash to zoom out, or on the green arrows for adjacent maps.


METAR-TAF: